createdAt,value
2022-11-16T00:02:06.651Z,1.30
2022-11-16T00:04:33.297Z,1.48
2022-11-16T00:07:02.736Z,1.17
2022-11-16T00:09:32.047Z,1.45
2022-11-16T00:12:01.394Z,1.40
2022-11-16T00:14:30.887Z,1.10
2022-11-16T00:16:58.116Z,1.30
2022-11-16T00:19:25.555Z,1.30
2022-11-16T00:21:52.868Z,1.35
2022-11-16T00:24:20.596Z,1.23
2022-11-16T00:26:47.696Z,1.35
2022-11-16T00:29:20.413Z,1.35
2022-11-16T00:31:47.466Z,1.40
2022-11-16T00:34:14.154Z,1.48
2022-11-16T00:36:40.719Z,1.48
2022-11-16T00:39:07.264Z,1.40
2022-11-16T00:41:33.805Z,1.30
2022-11-16T00:44:00.408Z,1.20
2022-11-16T00:46:26.968Z,1.10
2022-11-16T00:48:53.727Z,1.20
2022-11-16T00:51:20.263Z,1.30
2022-11-16T00:53:46.909Z,1.52
2022-11-16T00:56:13.447Z,1.20
2022-11-16T00:58:40.003Z,1.15
2022-11-16T01:01:08.236Z,1.10
2022-11-16T01:03:35.869Z,1.02
2022-11-16T01:06:04.052Z,1.40
2022-11-16T01:08:30.696Z,1.20
2022-11-16T01:11:18.080Z,1.38
2022-11-16T01:13:45.019Z,1.02
2022-11-16T01:16:18.896Z,1.00
2022-11-16T01:18:49.659Z,1.30
2022-11-16T01:21:17.049Z,1.20
2022-11-16T01:23:43.658Z,1.20
2022-11-16T01:26:10.192Z,1.25
2022-11-16T01:28:37.163Z,1.50
2022-11-16T01:31:03.990Z,1.13
2022-11-16T01:33:30.871Z,1.15
2022-11-16T01:35:57.435Z,1.23
2022-11-16T01:38:27.219Z,1.08
2022-11-16T01:40:56.251Z,1.40
2022-11-16T01:43:27.209Z,1.13
2022-11-16T01:45:53.837Z,0.90
2022-11-16T01:48:23.594Z,1.25
2022-11-16T01:50:50.224Z,1.10
2022-11-16T01:53:16.912Z,1.30
2022-11-16T01:55:44.803Z,1.10
2022-11-16T01:58:18.796Z,1.10
2022-11-16T02:00:45.620Z,0.90
2022-11-16T02:03:12.208Z,1.20
2022-11-16T02:05:50.904Z,1.00
2022-11-16T02:08:58.725Z,1.20
2022-11-16T02:11:42.159Z,1.08
2022-11-16T02:14:17.734Z,0.90
2022-11-16T02:17:06.385Z,1.00
2022-11-16T02:19:59.995Z,0.95
2022-11-16T02:22:47.922Z,1.00
2022-11-16T02:25:32.375Z,1.05
2022-11-16T02:28:20.368Z,1.00
2022-11-16T02:30:49.402Z,1.05
2022-11-16T02:33:19.339Z,1.13
2022-11-16T02:35:49.283Z,1.20
2022-11-16T02:38:19.482Z,1.10
2022-11-16T02:40:48.558Z,1.08
2022-11-16T02:43:21.430Z,1.20
2022-11-16T02:45:50.091Z,1.27
2022-11-16T02:48:24.529Z,1.13
2022-11-16T02:50:52.832Z,0.90
2022-11-16T02:53:23.504Z,1.15
2022-11-16T02:55:50.306Z,1.05
2022-11-16T02:58:26.102Z,1.00
2022-11-16T03:01:00.174Z,0.90
2022-11-16T03:03:35.813Z,1.00
2022-11-16T03:06:05.771Z,0.90
2022-11-16T03:08:36.324Z,1.00
2022-11-16T03:11:26.870Z,1.10
2022-11-16T03:13:59.142Z,1.13
2022-11-16T03:16:26.029Z,1.00
2022-11-16T03:18:53.977Z,1.00
2022-11-16T03:21:38.099Z,1.20
2022-11-16T03:24:05.534Z,1.13
2022-11-16T03:26:57.819Z,1.00
2022-11-16T03:29:30.792Z,1.00
2022-11-16T03:32:09.483Z,0.90
2022-11-16T03:34:37.706Z,1.10
2022-11-16T03:37:04.845Z,0.98
2022-11-16T03:39:34.318Z,1.00
2022-11-16T03:42:02.904Z,1.05
2022-11-16T03:44:29.561Z,1.00
2022-11-16T03:46:56.120Z,0.90
2022-11-16T03:49:23.551Z,1.20
2022-11-16T03:51:50.524Z,0.75
2022-11-16T03:54:17.115Z,1.02
2022-11-16T03:56:43.660Z,1.00
2022-11-16T03:59:10.198Z,1.15
2022-11-16T04:01:41.783Z,0.90
2022-11-16T04:04:30.964Z,1.00
2022-11-16T04:07:15.796Z,1.10
2022-11-16T04:10:00.924Z,0.90
2022-11-16T04:12:45.724Z,1.20
2022-11-16T04:15:30.615Z,1.05
2022-11-16T04:18:15.546Z,1.10
2022-11-16T04:21:01.195Z,1.17
2022-11-16T04:23:46.513Z,1.00
2022-11-16T04:26:13.072Z,0.98
2022-11-16T04:28:39.875Z,1.02
2022-11-16T04:31:25.224Z,0.90
2022-11-16T04:34:11.020Z,1.00
2022-11-16T04:36:55.947Z,1.15
2022-11-16T04:39:22.518Z,1.00
2022-11-16T04:42:07.357Z,0.70
2022-11-16T04:44:55.590Z,0.93
2022-11-16T04:47:22.134Z,1.02
2022-11-16T04:49:48.762Z,0.88
2022-11-16T04:52:15.292Z,1.10
2022-11-16T04:54:41.850Z,1.00
2022-11-16T04:57:08.391Z,0.95
2022-11-16T04:59:34.907Z,0.90
2022-11-16T05:02:10.628Z,1.00
2022-11-16T05:04:41.018Z,1.05
2022-11-16T05:07:11.261Z,1.00
2022-11-16T05:09:45.575Z,0.90
2022-11-16T05:12:16.492Z,1.08
2022-11-16T05:14:43.828Z,1.10
2022-11-16T05:17:11.006Z,0.90
2022-11-16T05:19:55.858Z,0.88
2022-11-16T05:22:23.080Z,1.10
2022-11-16T05:24:49.618Z,0.90
2022-11-16T05:27:17.691Z,1.05
2022-11-16T05:29:44.523Z,1.25
2022-11-16T05:32:12.169Z,0.93
2022-11-16T05:34:39.111Z,0.80
2022-11-16T05:37:05.702Z,0.95
2022-11-16T05:39:32.259Z,1.02
2022-11-16T05:41:58.836Z,0.90
2022-11-16T05:44:25.429Z,0.88
2022-11-16T05:46:52.255Z,1.00
2022-11-16T05:49:19.146Z,0.82
2022-11-16T05:51:46.816Z,1.08
2022-11-16T05:54:20.830Z,1.00
2022-11-16T05:56:48.666Z,0.90
2022-11-16T05:59:17.446Z,0.88
2022-11-16T06:01:44.210Z,1.00
2022-11-16T06:04:11.288Z,0.95
2022-11-16T06:06:37.882Z,0.80
2022-11-16T06:09:04.700Z,1.00
2022-11-16T06:11:35.707Z,1.00
2022-11-16T06:14:03.161Z,0.82
2022-11-16T06:16:29.731Z,1.00
2022-11-16T06:18:56.268Z,0.70
2022-11-16T06:21:22.863Z,0.90
2022-11-16T06:23:49.391Z,0.70
2022-11-16T06:26:16.009Z,0.90
2022-11-16T06:28:42.548Z,0.80
2022-11-16T06:31:09.235Z,0.93
2022-11-16T06:33:35.933Z,0.80
2022-11-16T06:36:02.529Z,0.80
2022-11-16T06:38:29.416Z,1.05
2022-11-16T06:40:58.010Z,0.82
2022-11-16T06:43:25.568Z,0.80
2022-11-16T06:45:54.487Z,0.90
2022-11-16T06:48:21.116Z,0.80
2022-11-16T06:50:48.927Z,0.90
2022-11-16T06:53:16.035Z,0.90
2022-11-16T06:55:42.753Z,0.80
2022-11-16T06:58:09.436Z,0.80
2022-11-16T07:00:36.171Z,0.80
2022-11-16T07:03:03.617Z,0.77
2022-11-16T07:05:30.923Z,0.80
2022-11-16T07:07:57.972Z,0.80
2022-11-16T07:10:24.716Z,0.80
2022-11-16T07:12:51.275Z,0.77
2022-11-16T07:15:17.947Z,0.90
2022-11-16T07:17:44.514Z,0.82
2022-11-16T07:20:12.100Z,0.90
2022-11-16T07:22:38.775Z,0.68
2022-11-16T07:25:05.793Z,0.73
2022-11-16T07:27:32.345Z,0.70
2022-11-16T07:29:58.900Z,0.80
2022-11-16T07:32:25.470Z,0.70
2022-11-16T07:34:52.003Z,0.82
2022-11-16T07:37:18.554Z,0.90
2022-11-16T07:39:45.761Z,0.73
2022-11-16T07:42:12.434Z,0.77
2022-11-16T07:44:39.280Z,0.70
2022-11-16T07:47:06.140Z,0.60
2022-11-16T07:49:32.674Z,0.63
2022-11-16T07:51:59.274Z,0.80
2022-11-16T07:54:25.819Z,0.93
2022-11-16T07:56:52.347Z,0.82
2022-11-16T07:59:18.873Z,0.60
2022-11-16T08:01:47.603Z,0.65
2022-11-16T08:04:15.482Z,0.50
2022-11-16T08:06:42.006Z,0.70
2022-11-16T08:09:09.444Z,0.77
2022-11-16T08:11:36.064Z,0.65
2022-11-16T08:14:02.618Z,0.63
2022-11-16T08:16:29.316Z,1.00
2022-11-16T08:18:55.959Z,0.90
2022-11-16T08:21:22.528Z,0.70
2022-11-16T08:23:50.687Z,0.70
2022-11-16T08:26:22.088Z,0.80
2022-11-16T08:28:51.231Z,0.90
2022-11-16T08:31:22.269Z,1.65
2022-11-16T08:33:48.827Z,2.65
2022-11-16T08:36:18.724Z,2.65
2022-11-16T08:38:46.229Z,2.22
2022-11-16T08:41:13.175Z,2.90
2022-11-16T08:43:40.488Z,2.30
2022-11-16T08:46:08.648Z,2.55
2022-11-16T08:48:36.292Z,2.03
2022-11-16T08:51:19.936Z,2.40
2022-11-16T08:53:48.498Z,2.13
2022-11-16T08:56:16.589Z,2.63
2022-11-16T08:58:44.317Z,2.20
2022-11-16T09:01:19.285Z,2.50
2022-11-16T09:03:46.319Z,2.10
2022-11-16T09:06:13.591Z,2.17
2022-11-16T09:08:42.284Z,2.20
2022-11-16T09:11:17.310Z,2.05
2022-11-16T09:13:45.241Z,1.95
2022-11-16T09:16:11.952Z,2.17
2022-11-16T09:18:38.755Z,2.10
2022-11-16T09:21:05.344Z,2.03
2022-11-16T09:23:31.889Z,2.33
2022-11-16T09:26:02.096Z,1.98
2022-11-16T09:28:28.719Z,1.75
2022-11-16T09:30:59.820Z,1.80
2022-11-16T09:33:28.479Z,1.85
2022-11-16T09:35:55.031Z,2.10
2022-11-16T09:38:30.579Z,1.67
2022-11-16T09:41:52.833Z,1.85
2022-11-16T09:45:08.541Z,1.70
2022-11-16T09:47:52.007Z,1.90
2022-11-16T09:50:29.994Z,1.73
2022-11-16T09:53:02.117Z,2.33
2022-11-16T09:55:43.480Z,1.75
2022-11-16T09:58:15.428Z,1.50
2022-11-16T10:00:48.939Z,1.60
2022-11-16T10:05:57.562Z,2.05
2022-11-16T10:08:46.025Z,1.77
2022-11-16T10:11:24.103Z,1.40
2022-11-16T10:14:31.199Z,1.98
2022-11-16T10:17:23.081Z,1.70
2022-11-16T10:19:49.568Z,1.70
2022-11-16T10:22:45.183Z,1.48
2022-11-16T10:25:17.059Z,1.90
2022-11-16T10:27:44.554Z,1.52
2022-11-16T10:30:18.542Z,1.67
2022-11-16T10:32:51.131Z,1.40
2022-11-16T10:35:23.067Z,1.43
2022-11-16T10:37:50.987Z,1.63
2022-11-16T10:40:20.721Z,1.30
2022-11-16T10:42:54.843Z,1.45
2022-11-16T10:45:30.430Z,1.48
2022-11-16T10:48:14.904Z,1.30
2022-11-16T10:50:48.072Z,1.25
2022-11-16T10:53:16.363Z,1.20
2022-11-16T10:55:42.927Z,1.40
2022-11-16T10:58:09.542Z,1.30
2022-11-16T11:00:42.021Z,1.48
2022-11-16T11:03:10.780Z,1.30
2022-11-16T11:05:38.050Z,1.60
2022-11-16T11:08:11.354Z,1.70
2022-11-16T11:10:39.642Z,1.73
2022-11-16T11:13:08.197Z,1.55
2022-11-16T11:15:34.874Z,2.08
2022-11-16T11:18:29.756Z,1.73
2022-11-16T11:21:17.979Z,1.65
2022-11-16T11:23:47.950Z,1.85
2022-11-16T11:26:37.502Z,1.30
2022-11-16T11:29:22.632Z,1.40
2022-11-16T11:31:51.728Z,1.20
2022-11-16T11:34:27.382Z,1.25
2022-11-16T11:36:59.775Z,1.35
2022-11-16T11:39:35.013Z,1.95
2022-11-16T11:42:12.302Z,1.30
2022-11-16T11:44:50.403Z,1.80
2022-11-16T11:47:55.571Z,1.60
2022-11-16T11:50:40.691Z,1.73
2022-11-16T11:53:08.171Z,1.40
2022-11-16T11:55:35.078Z,1.50
2022-11-16T11:58:03.064Z,1.65
2022-11-16T12:00:38.921Z,1.55
2022-11-16T12:03:11.469Z,1.40
2022-11-16T12:06:14.454Z,1.70
2022-11-16T12:08:55.846Z,1.35
2022-11-16T12:11:28.287Z,1.60
2022-11-16T12:14:03.331Z,1.45
2022-11-16T12:16:38.833Z,1.58
2022-11-16T12:19:42.664Z,1.30
2022-11-16T12:22:30.027Z,1.13
2022-11-16T12:25:05.131Z,1.30
2022-11-16T12:27:40.368Z,1.58
2022-11-16T12:30:11.407Z,1.35
2022-11-16T12:32:46.852Z,1.67
2022-11-16T12:35:19.319Z,1.27
2022-11-16T12:37:49.445Z,1.25
2022-11-16T12:40:56.246Z,1.42
2022-11-16T12:43:48.758Z,1.55
2022-11-16T12:46:42.739Z,1.83
2022-11-16T12:52:09.133Z,1.67
2022-11-16T12:55:18.970Z,1.73
2022-11-16T12:57:40.554Z,1.40
2022-11-16T13:00:10.764Z,1.50
2022-11-16T13:02:58.664Z,1.50
2022-11-16T13:05:31.018Z,1.20
2022-11-16T13:08:02.023Z,1.52
2022-11-16T13:10:34.656Z,1.42
2022-11-16T13:15:52.077Z,1.40
2022-11-16T13:18:20.125Z,1.30
2022-11-16T13:21:00.676Z,1.48
2022-11-16T13:23:45.717Z,1.42
2022-11-16T13:26:27.031Z,1.50
2022-11-16T13:29:19.156Z,1.30
2022-11-16T13:32:11.205Z,1.70
2022-11-16T13:34:38.824Z,1.23
2022-11-16T13:37:39.347Z,1.30
2022-11-16T13:40:05.912Z,1.00
2022-11-16T13:42:35.253Z,1.30
2022-11-16T13:45:22.121Z,1.55
2022-11-16T13:47:53.368Z,1.30
2022-11-16T13:50:23.263Z,1.23
2022-11-16T13:56:04.587Z,1.35
2022-11-16T13:58:32.191Z,1.40
2022-11-16T14:01:10.921Z,1.30
2022-11-16T14:03:51.617Z,1.33
2022-11-16T14:06:24.243Z,1.20
2022-11-16T14:08:56.969Z,1.43
2022-11-16T14:11:37.425Z,1.33
2022-11-16T14:14:11.559Z,1.25
2022-11-16T14:16:50.638Z,1.25
2022-11-16T14:19:55.260Z,1.67
2022-11-16T14:22:40.956Z,1.40
2022-11-16T14:25:16.836Z,1.10
2022-11-16T14:27:59.722Z,1.45
2022-11-16T14:30:30.099Z,1.27
2022-11-16T14:32:57.455Z,1.25
2022-11-16T14:35:38.219Z,1.40
2022-11-16T14:38:29.012Z,1.27
2022-11-16T14:40:59.427Z,1.10
2022-11-16T14:43:41.464Z,1.10
2022-11-16T14:46:29.265Z,1.20
2022-11-16T14:48:57.400Z,1.20
2022-11-16T14:51:31.552Z,1.27
2022-11-16T14:54:01.740Z,1.30
2022-11-16T14:56:28.310Z,1.42
2022-11-16T14:58:55.847Z,1.38
2022-11-16T15:01:30.485Z,1.00
2022-11-16T15:04:04.889Z,0.90
2022-11-16T15:06:37.029Z,1.10
2022-11-16T15:09:04.440Z,1.30
2022-11-16T15:11:52.625Z,1.30
2022-11-16T15:14:30.437Z,1.30
2022-11-16T15:16:57.767Z,1.40
2022-11-16T15:19:25.097Z,1.35
2022-11-16T15:22:01.329Z,1.27
2022-11-16T15:24:31.997Z,1.10
2022-11-16T15:27:26.279Z,1.15
2022-11-16T15:32:19.222Z,1.20
2022-11-16T15:34:52.873Z,1.30
2022-11-16T15:37:29.975Z,1.20
2022-11-16T15:39:58.189Z,1.10
2022-11-16T15:42:26.010Z,1.10
2022-11-16T15:44:52.854Z,1.13
2022-11-16T15:47:20.509Z,1.08
2022-11-16T15:49:49.784Z,1.10
2022-11-16T15:52:43.771Z,1.27
2022-11-16T15:58:02.527Z,1.15
2022-11-16T16:00:30.239Z,1.15
2022-11-16T16:03:31.747Z,1.00
2022-11-16T16:05:58.595Z,1.10
2022-11-16T16:08:27.932Z,1.00
2022-11-16T16:11:03.506Z,0.90
2022-11-16T16:13:57.373Z,1.20
2022-11-16T16:16:36.398Z,0.93
2022-11-16T16:19:25.758Z,0.98
2022-11-16T16:21:52.312Z,0.80
2022-11-16T16:24:37.630Z,1.10
2022-11-16T16:27:18.649Z,1.13
2022-11-16T16:29:52.356Z,0.98
2022-11-16T16:32:29.291Z,1.17
2022-11-16T16:35:00.327Z,1.05
2022-11-16T16:37:28.564Z,1.08
2022-11-16T16:39:55.112Z,0.90
2022-11-16T16:42:21.707Z,1.20
2022-11-16T16:44:48.811Z,1.00
2022-11-16T16:47:16.898Z,1.30
2022-11-16T16:49:43.515Z,1.35
2022-11-16T16:52:12.633Z,1.00
2022-11-16T16:54:39.931Z,1.13
2022-11-16T16:57:06.538Z,1.30
2022-11-16T16:59:33.083Z,0.93
2022-11-16T17:01:59.838Z,1.10
2022-11-16T17:04:26.765Z,1.10
2022-11-16T17:06:54.119Z,1.00
2022-11-16T17:09:20.774Z,1.10
2022-11-16T17:11:48.043Z,1.10
2022-11-16T17:14:14.632Z,1.13
2022-11-16T17:16:41.188Z,1.25
2022-11-16T17:19:07.797Z,1.00
2022-11-16T17:21:34.363Z,1.13
2022-11-16T17:24:00.918Z,1.05
2022-11-16T17:26:29.511Z,1.10
2022-11-16T17:28:57.234Z,1.15
2022-11-16T17:31:24.623Z,1.20
2022-11-16T17:33:51.470Z,1.15
2022-11-16T17:36:18.423Z,1.20
2022-11-16T17:38:45.140Z,1.27
2022-11-16T17:41:13.846Z,1.10
2022-11-16T17:43:41.776Z,0.80
2022-11-16T17:46:13.512Z,1.40
2022-11-16T17:48:42.218Z,1.30
2022-11-16T17:51:09.875Z,1.60
2022-11-16T17:53:36.808Z,1.30
2022-11-16T17:56:04.315Z,1.70
2022-11-16T17:58:31.682Z,1.30
2022-11-16T18:00:58.439Z,1.20
2022-11-16T18:03:25.447Z,1.42
2022-11-16T18:05:52.000Z,1.60
2022-11-16T18:08:18.560Z,1.50
2022-11-16T18:10:45.192Z,1.63
2022-11-16T18:13:11.764Z,1.38
2022-11-16T18:15:42.409Z,1.60
2022-11-16T18:18:09.188Z,1.30
2022-11-16T18:20:36.980Z,1.30
2022-11-16T18:23:04.514Z,1.63
2022-11-16T18:25:33.952Z,1.58
2022-11-16T18:28:00.490Z,1.42
2022-11-16T18:30:27.031Z,1.80
2022-11-16T18:32:53.660Z,1.50
2022-11-16T18:35:20.311Z,1.42
2022-11-16T18:37:46.914Z,2.08
2022-11-16T18:40:13.883Z,1.80
2022-11-16T18:42:41.677Z,1.90
2022-11-16T18:45:08.731Z,1.80
2022-11-16T18:47:35.257Z,1.77
2022-11-16T18:50:01.921Z,2.05
2022-11-16T18:52:28.503Z,1.65
2022-11-16T18:54:55.079Z,1.80
2022-11-16T18:57:21.719Z,1.58
2022-11-16T18:59:48.268Z,1.50
2022-11-16T19:02:14.878Z,1.98
2022-11-16T19:04:41.507Z,1.90
2022-11-16T19:07:08.124Z,1.77
2022-11-16T19:09:34.901Z,1.73
2022-11-16T19:12:01.443Z,1.70
2022-11-16T19:14:27.986Z,1.75
2022-11-16T19:16:57.345Z,1.92
2022-11-16T19:19:25.368Z,1.70
2022-11-16T19:21:52.205Z,1.83
2022-11-16T19:24:18.784Z,1.73
2022-11-16T19:26:45.387Z,1.88
2022-11-16T19:29:11.922Z,1.75
2022-11-16T19:31:38.479Z,1.77
2022-11-16T19:34:07.163Z,2.30
2022-11-16T19:36:35.617Z,1.85
2022-11-16T19:39:02.602Z,2.10
2022-11-16T19:41:29.546Z,2.08
2022-11-16T19:43:59.687Z,1.75
2022-11-16T19:46:31.323Z,2.25
2022-11-16T19:48:58.504Z,2.35
2022-11-16T19:51:27.224Z,2.05
2022-11-16T19:53:54.251Z,2.30
2022-11-16T19:56:22.571Z,2.20
2022-11-16T19:58:49.468Z,2.30
2022-11-16T20:01:42.224Z,2.08
2022-11-16T20:04:09.371Z,2.25
2022-11-16T20:06:38.473Z,2.55
2022-11-16T20:09:11.308Z,2.45
2022-11-16T20:11:40.254Z,2.13
2022-11-16T20:14:09.590Z,2.33
2022-11-16T20:16:39.372Z,2.60
2022-11-16T20:19:07.534Z,2.67
2022-11-16T20:21:40.666Z,2.92
2022-11-16T20:24:10.795Z,2.90
2022-11-16T20:26:40.213Z,3.00
2022-11-16T20:29:06.735Z,2.83
2022-11-16T20:31:33.856Z,3.00
2022-11-16T20:34:05.302Z,3.38
2022-11-16T20:36:33.340Z,3.10
2022-11-16T20:39:00.350Z,3.00
2022-11-16T20:41:29.107Z,3.30
2022-11-16T20:43:57.611Z,3.22
2022-11-16T20:46:26.368Z,3.60
2022-11-16T20:48:52.957Z,3.10
2022-11-16T20:51:20.611Z,3.35
2022-11-16T20:53:48.190Z,3.20
2022-11-16T20:56:16.379Z,3.40
2022-11-16T20:58:43.227Z,3.78
2022-11-16T21:01:28.486Z,3.45
2022-11-16T21:03:56.251Z,3.33
2022-11-16T21:06:22.846Z,3.42
2022-11-16T21:08:49.516Z,3.53
2022-11-16T21:11:18.540Z,3.83
2022-11-16T21:14:04.302Z,3.45
2022-11-16T21:16:31.472Z,3.92
2022-11-16T21:18:58.023Z,4.05
2022-11-16T21:21:25.623Z,4.32
2022-11-16T21:23:53.645Z,4.40
2022-11-16T21:26:28.645Z,4.13
2022-11-16T21:28:55.943Z,4.28
2022-11-16T21:31:25.768Z,4.45
2022-11-16T21:33:53.126Z,3.58
2022-11-16T21:36:21.336Z,4.55
2022-11-16T21:38:48.802Z,4.53
2022-11-16T21:41:16.445Z,4.43
2022-11-16T21:43:44.032Z,4.15
2022-11-16T21:46:12.506Z,4.78
2022-11-16T21:48:39.508Z,4.63
2022-11-16T21:51:06.886Z,4.55
2022-11-16T21:53:34.353Z,4.70
2022-11-16T21:56:01.724Z,4.43
2022-11-16T21:58:28.288Z,4.38
2022-11-16T22:00:56.404Z,5.50
2022-11-16T22:03:24.620Z,4.90
2022-11-16T22:06:13.886Z,5.07
2022-11-16T22:08:40.834Z,4.85
2022-11-16T22:11:08.472Z,4.65
2022-11-16T22:13:35.764Z,5.13
2022-11-16T22:16:12.560Z,4.80
2022-11-16T22:18:39.388Z,5.28
2022-11-16T22:21:06.393Z,4.90
2022-11-16T22:23:33.454Z,5.40
2022-11-16T22:26:04.729Z,5.40
2022-11-16T22:28:32.571Z,5.35
2022-11-16T22:31:02.251Z,5.57
2022-11-16T22:33:28.952Z,5.00
2022-11-16T22:35:55.727Z,5.63
2022-11-16T22:38:22.256Z,4.75
2022-11-16T22:40:52.991Z,5.18
2022-11-16T22:43:20.687Z,5.47
2022-11-16T22:45:47.272Z,5.90
2022-11-16T22:48:14.191Z,5.40
2022-11-16T22:50:40.753Z,5.68
2022-11-16T22:53:07.355Z,5.32
2022-11-16T22:55:38.525Z,5.65
2022-11-16T22:58:05.567Z,5.78
2022-11-16T23:00:37.523Z,5.55
2022-11-16T23:03:07.521Z,5.50
2022-11-16T23:05:34.171Z,5.65
2022-11-16T23:08:00.705Z,5.68
2022-11-16T23:10:27.369Z,5.43
2022-11-16T23:13:12.580Z,5.75
2022-11-16T23:15:51.254Z,5.63
2022-11-16T23:18:19.640Z,6.07
2022-11-16T23:21:04.804Z,5.55
2022-11-16T23:23:49.979Z,5.75
2022-11-16T23:26:41.513Z,6.00
2022-11-16T23:29:09.304Z,5.32
2022-11-16T23:31:36.787Z,5.80
2022-11-16T23:34:03.928Z,5.63
2022-11-16T23:36:30.462Z,6.32
2022-11-16T23:38:57.059Z,5.90
2022-11-16T23:41:42.172Z,6.18
2022-11-16T23:44:08.731Z,5.82
2022-11-16T23:46:35.330Z,6.30
2022-11-16T23:49:02.157Z,6.25
2022-11-16T23:51:28.689Z,5.97
2022-11-16T23:53:55.824Z,5.90
2022-11-16T23:56:22.987Z,6.38
2022-11-16T23:58:49.643Z,5.93
